Main page
METAR-TAF:

METAR-TAF

Airports :

Balıkesir Koca Seyit Airport

Edremit, Turkey

latitude: 39-33-16N, longitude: 27-00-49E, elevation: 15 m

Current weather observation

The report was made 1 hour and 55 minutes ago, at 00:50 UTC
Wind 11 kt from the East/Northeast
Temperature 26°C
Humidity 54%
Pressure 1004 hPa
Visibility 10 km or more
Scattered clouds at a height of 3500 ft

METAR: LTFD 180050Z 06011KT 9999 SCT035 26/16 Q1004

Time: 05:45 (02:45 UTC)

Forecast

The report was made 1 hour and 5 minutes ago, at 01:40 UTC
Forecast valid from 18 at 03 UTC to 18 at 12 UTC
Wind 5 kt from the East/Northeast
Visibility 10 km or more
Scattered clouds at a height of 3500 ft

TAF: LTFD 180140Z 1803/1812 06005KT 9999 SCT035

Weather observations and forecasts of more than 4000 airports (METAR and TAF reports).

The available stations are represented by yellow and red dots on the map.

Hover mouse over dot to see the name of the station.

Then click to see weather observations and forecasts.

To change the map : click on the green buttons with a black cross to zoom in, on the green button with a dash to zoom out, or on the green arrows for adjacent maps.


METAR-TAF: